Terminal Aerodrome Forecast
Issued by NWS

Home | Current Version | Previous Version | Text Only | Print | Product List | Glossary On
Versions: 1 2 3 4 5 6 7 8 9 10 11 12 13 14 15 16 17 18 19 20 21 22 23 24 25 26 27 28 29 30 31 32 33 34 35 36
000
FTUS41 KBOX 241734
TAFACK
TAF
KACK 241734Z 2418/2518 02015KT P6SM BKN050
     FM241900 02014KT P6SM SCT050
     FM242300 35011KT P6SM SKC
     FM251500 34019KT P6SM FEW050=

USA.gov is the U.S. government's official web portal to all federal, state and local government web resources and services.